Terminal Aerodrome Forecast
Issued by NWS

Home | Current Version | Previous Version | Text Only | Print | Product List | Glossary Off
Versions: 1 2 3 4 5 6 7 8 9 10 11 12 13 14 15 16 17 18 19

581
FTUS42 KMHX 242335
TAFOAJ
TAF
KOAJ 242335Z 2500/2524 13010KT P6SM BKN060
     FM250200 18005KT P6SM SCT025
     FM250800 VRB03KT 2SM BR SCT007
     FM251100 VRB03KT P6SM BKN003
     FM251300 VRB04KT P6SM BKN007
     FM251600 24010KT P6SM BKN035
     FM252300 28005KT P6SM SCT070
      AMD LTD TO CLD VIS AND WIND=

USA.gov is the U.S. government's official web portal to all federal, state and local government web resources and services.